Toledo, Iowa
Current Conditions -  °F | °C
As of 12:53 AM on Wednesday 22 Oct 2014 (Local Time) from KMIW Reporting Station
Clear Clear  
Wind Chill: 35°   Ceiling: Unl
Heat Index: 40°   Visibility: 10mi
Dew Point: 36°   Wind: 7mph
Humidity: 86%   Direction: 100°E
Pressure: 30.2"   Gusts: NA
Location:  42°N, 92.58°W
Report Text: KMIW 220553Z AUTO 10006KT 10SM CLR 04/02 A3020 RMK AO2 SLP230 T00440022 10111 20039 401670022 51006
Loading
Personal Weather Stations






























Interactive Weather Map
Tropical Storm Tracking
New forecast layout! Learn more

10-Day Weather Forecast

Advertisements
Track Severe Weather on mobile